createdAt,value
2018-10-06T00:01:21.964Z,13.53
2018-10-06T00:03:56.322Z,13.60
2018-10-06T00:06:25.007Z,14.00
2018-10-06T00:08:55.626Z,13.17
2018-10-06T00:11:28.024Z,13.80
2018-10-06T00:13:57.630Z,12.80
2018-10-06T00:16:28.184Z,12.80
2018-10-06T00:18:57.756Z,13.30
2018-10-06T00:21:28.332Z,13.30
2018-10-06T00:23:58.854Z,13.10
2018-10-06T00:26:38.306Z,13.30
2018-10-06T00:29:13.088Z,13.87
2018-10-06T00:31:47.060Z,14.17
2018-10-06T00:34:20.318Z,13.53
2018-10-06T00:36:52.366Z,14.37
2018-10-06T00:39:24.146Z,14.10
2018-10-06T00:41:52.769Z,14.67
2018-10-06T00:44:23.393Z,15.27
2018-10-06T00:46:53.057Z,14.73
2018-10-06T00:49:21.714Z,14.97
2018-10-06T00:51:55.025Z,15.43
2018-10-06T00:54:26.737Z,14.90
2018-10-06T00:56:58.769Z,15.70
2018-10-06T00:59:29.393Z,15.70
2018-10-06T01:01:58.073Z,15.77
2018-10-06T01:04:26.696Z,15.97
2018-10-06T01:07:01.191Z,16.10
2018-10-06T01:09:31.803Z,16.43
2018-10-06T01:12:00.445Z,16.33
2018-10-06T01:14:29.127Z,15.77
2018-10-06T01:17:01.175Z,16.37
2018-10-06T01:19:29.567Z,16.60
2018-10-06T01:21:59.141Z,16.43
2018-10-06T01:24:28.795Z,16.40
2018-10-06T01:26:59.303Z,16.60
2018-10-06T01:29:33.611Z,15.63
2018-10-06T01:32:04.632Z,16.03
2018-10-06T01:34:37.583Z,16.07
2018-10-06T01:37:08.737Z,16.10
2018-10-06T01:39:37.173Z,16.03
2018-10-06T01:42:09.323Z,15.67
2018-10-06T01:44:41.095Z,15.60
2018-10-06T01:47:09.742Z,15.53
2018-10-06T01:49:40.774Z,15.93
2018-10-06T01:52:09.203Z,16.23
2018-10-06T01:54:41.575Z,16.20
2018-10-06T01:57:11.214Z,15.33
2018-10-06T01:59:45.091Z,14.97
2018-10-06T02:02:23.942Z,16.20
2018-10-06T02:05:04.282Z,16.23
2018-10-06T02:07:36.973Z,15.43
2018-10-06T02:10:11.758Z,16.23
2018-10-06T02:12:43.644Z,15.43
2018-10-06T02:15:24.230Z,15.93
2018-10-06T02:17:53.872Z,15.83
2018-10-06T02:20:22.557Z,15.87
2018-10-06T02:22:51.223Z,16.10
2018-10-06T02:25:19.682Z,15.20
2018-10-06T02:27:48.263Z,15.10
2018-10-06T02:30:20.424Z,15.83
2018-10-06T02:32:49.234Z,15.90
2018-10-06T02:35:17.702Z,16.73
2018-10-06T02:37:47.318Z,15.73
2018-10-06T02:40:19.814Z,15.67
2018-10-06T02:42:48.564Z,15.60
2018-10-06T02:45:17.992Z,16.07
2018-10-06T02:47:46.341Z,16.57
2018-10-06T02:50:14.758Z,15.50
2018-10-06T02:52:44.342Z,16.47
2018-10-06T02:55:12.747Z,16.53
2018-10-06T02:57:44.226Z,16.73
2018-10-06T03:00:12.869Z,16.33
2018-10-06T03:02:44.635Z,15.83
2018-10-06T03:05:16.431Z,16.03
2018-10-06T03:07:49.411Z,15.97
2018-10-06T03:10:18.057Z,15.90
2018-10-06T03:12:50.168Z,15.70
2018-10-06T03:15:24.639Z,16.67
2018-10-06T03:17:55.185Z,16.40
2018-10-06T03:20:31.569Z,17.37
2018-10-06T03:23:04.199Z,15.67
2018-10-06T03:25:35.675Z,16.20
2018-10-06T03:28:08.545Z,16.20
2018-10-06T03:30:38.017Z,16.97
2018-10-06T03:33:13.427Z,16.30
2018-10-06T03:35:45.783Z,16.10
2018-10-06T03:38:14.193Z,16.37
2018-10-06T03:40:46.543Z,15.40
2018-10-06T03:43:19.247Z,16.00
2018-10-06T03:45:49.280Z,15.20
2018-10-06T03:48:17.838Z,15.47
2018-10-06T03:50:52.718Z,14.80
2018-10-06T03:53:21.402Z,16.33
2018-10-06T03:55:53.869Z,16.13
2018-10-06T03:58:24.264Z,14.93
2018-10-06T04:00:54.226Z,15.70
2018-10-06T04:03:23.774Z,16.03
2018-10-06T04:05:58.007Z,15.23
2018-10-06T04:08:30.090Z,15.37
2018-10-06T04:10:58.772Z,14.57
2018-10-06T04:13:28.764Z,14.87
2018-10-06T04:16:01.111Z,14.40
2018-10-06T04:18:37.126Z,15.03
2018-10-06T04:21:13.803Z,14.63
2018-10-06T04:23:44.365Z,14.13
2018-10-06T04:26:16.430Z,14.70
2018-10-06T04:28:50.600Z,14.27
2018-10-06T04:31:20.233Z,14.47
2018-10-06T04:33:54.401Z,15.47
2018-10-06T04:36:26.820Z,14.50
2018-10-06T04:38:55.496Z,14.63
2018-10-06T04:41:27.933Z,15.37
2018-10-06T04:44:03.972Z,14.73
2018-10-06T04:46:34.450Z,15.63
2018-10-06T04:49:04.070Z,16.00
2018-10-06T04:51:36.132Z,14.97
2018-10-06T04:54:07.072Z,15.30
2018-10-06T04:56:35.661Z,14.83
2018-10-06T04:59:08.990Z,16.23
2018-10-06T05:01:37.637Z,16.40
2018-10-06T05:04:07.273Z,14.97
2018-10-06T05:06:36.008Z,16.33
2018-10-06T05:09:05.807Z,15.57
2018-10-06T05:11:34.264Z,15.57
2018-10-06T05:14:04.418Z,15.00
2018-10-06T05:16:33.181Z,14.77
2018-10-06T05:19:03.717Z,15.50
2018-10-06T05:21:32.413Z,15.30
2018-10-06T05:24:01.071Z,13.97
2018-10-06T05:26:30.680Z,15.37
2018-10-06T05:28:59.403Z,15.27
2018-10-06T05:31:28.146Z,16.30
2018-10-06T05:33:56.839Z,16.67
2018-10-06T05:36:25.953Z,16.00
2018-10-06T05:38:55.346Z,16.17
2018-10-06T05:41:24.076Z,15.73
2018-10-06T05:43:52.705Z,15.60
2018-10-06T05:46:22.373Z,15.93
2018-10-06T05:48:54.167Z,14.83
2018-10-06T05:51:22.805Z,15.57
2018-10-06T05:53:53.352Z,16.73
2018-10-06T05:56:27.883Z,16.37
2018-10-06T05:58:57.908Z,16.27
2018-10-06T06:01:26.387Z,16.70
2018-10-06T06:03:58.639Z,16.03
2018-10-06T06:06:34.513Z,16.80
2018-10-06T06:09:03.146Z,16.20
2018-10-06T06:11:39.263Z,16.47
2018-10-06T06:14:11.718Z,16.67
2018-10-06T06:16:42.630Z,17.67
2018-10-06T06:19:15.253Z,16.90
2018-10-06T06:21:46.958Z,16.30
2018-10-06T06:24:15.655Z,16.37
2018-10-06T06:26:44.330Z,17.27
2018-10-06T06:29:13.099Z,16.97
2018-10-06T06:31:41.807Z,17.17
2018-10-06T06:34:13.542Z,17.73
2018-10-06T06:36:42.128Z,17.43
2018-10-06T06:39:10.608Z,18.27
2018-10-06T06:41:45.043Z,18.80
2018-10-06T06:44:13.753Z,19.30
2018-10-06T06:46:43.032Z,18.93
2018-10-06T06:49:16.524Z,17.97
2018-10-06T06:51:45.023Z,18.80
2018-10-06T06:54:18.904Z,17.43
2018-10-06T06:56:51.039Z,17.97
2018-10-06T06:59:20.593Z,17.03
2018-10-06T07:01:49.114Z,17.57
2018-10-06T07:04:21.686Z,17.83
2018-10-06T07:06:57.312Z,16.80
2018-10-06T07:09:26.034Z,17.23
2018-10-06T07:12:06.582Z,15.87
2018-10-06T07:14:35.485Z,16.13
2018-10-06T07:17:06.186Z,15.17
2018-10-06T07:19:36.080Z,15.83
2018-10-06T07:22:05.061Z,15.40
2018-10-06T07:24:38.079Z,14.43
2018-10-06T07:27:06.966Z,15.10
2018-10-06T07:29:39.051Z,15.83
2018-10-06T07:32:08.153Z,14.07
2018-10-06T07:34:37.227Z,14.27
2018-10-06T07:37:08.022Z,14.93
2018-10-06T07:39:36.769Z,14.37
2018-10-06T07:42:05.840Z,14.30
2018-10-06T07:44:34.982Z,13.77
2018-10-06T07:47:05.237Z,14.83
2018-10-06T07:49:37.520Z,14.60
2018-10-06T07:52:16.862Z,14.23
2018-10-06T07:54:46.865Z,13.07
2018-10-06T07:57:15.867Z,13.63
2018-10-06T07:59:44.736Z,13.70
2018-10-06T08:02:14.780Z,13.97
2018-10-06T08:04:45.919Z,14.27
2018-10-06T08:07:20.291Z,13.73
2018-10-06T08:09:50.469Z,15.00
2018-10-06T08:12:19.405Z,14.50
2018-10-06T08:14:49.175Z,14.47
2018-10-06T08:17:19.319Z,13.50
2018-10-06T08:19:48.453Z,12.83
2018-10-06T08:22:18.475Z,13.27
2018-10-06T08:24:51.365Z,12.27
2018-10-06T08:27:23.825Z,11.40
2018-10-06T08:29:53.709Z,11.23
2018-10-06T08:32:22.753Z,11.23
2018-10-06T08:34:57.087Z,10.17
2018-10-06T08:37:26.015Z,9.63
2018-10-06T08:39:54.791Z,9.77
2018-10-06T08:42:24.027Z,9.70
2018-10-06T08:44:53.099Z,9.77
2018-10-06T08:47:22.153Z,9.17
2018-10-06T08:49:50.766Z,9.90
2018-10-06T08:52:19.835Z,9.63
2018-10-06T08:54:48.870Z,9.30
2018-10-06T08:57:18.143Z,9.13
2018-10-06T08:59:48.159Z,9.40
2018-10-06T09:02:18.279Z,9.57
2018-10-06T09:04:48.123Z,9.80
2018-10-06T09:07:17.095Z,9.83
2018-10-06T09:09:46.094Z,9.50
2018-10-06T09:12:17.120Z,9.40
2018-10-06T09:14:45.977Z,9.83
2018-10-06T09:17:15.105Z,9.80
2018-10-06T09:19:44.080Z,9.73
2018-10-06T09:22:13.277Z,9.53
2018-10-06T09:24:43.238Z,10.17
2018-10-06T09:27:12.062Z,9.63
2018-10-06T09:29:41.404Z,9.93
2018-10-06T09:32:10.689Z,9.57
2018-10-06T09:34:39.817Z,9.50
2018-10-06T09:37:08.932Z,9.57
2018-10-06T09:39:38.098Z,9.40
2018-10-06T09:42:07.378Z,9.37
2018-10-06T09:44:36.548Z,9.40
2018-10-06T09:47:05.495Z,10.10
2018-10-06T09:49:34.413Z,9.63
2018-10-06T09:52:04.551Z,9.37
2018-10-06T09:54:34.968Z,9.23
2018-10-06T09:57:05.162Z,9.77
2018-10-06T09:59:34.805Z,9.47
2018-10-06T10:02:14.392Z,9.03
2018-10-06T10:04:43.665Z,9.07
2018-10-06T10:07:13.227Z,10.10
2018-10-06T10:09:43.345Z,9.20
2018-10-06T10:12:12.987Z,9.63
2018-10-06T10:14:42.819Z,9.03
2018-10-06T10:17:16.804Z,9.63
2018-10-06T10:19:52.067Z,10.23
2018-10-06T10:22:22.139Z,9.10
2018-10-06T10:24:52.237Z,10.00
2018-10-06T10:27:21.259Z,9.30
2018-10-06T10:29:51.483Z,9.03
2018-10-06T10:32:20.452Z,8.73
2018-10-06T10:34:49.442Z,8.67
2018-10-06T10:37:19.092Z,8.90
2018-10-06T10:39:50.346Z,8.47
2018-10-06T10:42:19.460Z,8.67
2018-10-06T10:44:48.650Z,8.30
2018-10-06T10:47:18.363Z,8.63
2018-10-06T10:49:47.086Z,8.60
2018-10-06T10:52:16.416Z,9.60
2018-10-06T10:54:47.218Z,8.27
2018-10-06T10:57:17.539Z,7.87
2018-10-06T10:59:51.752Z,7.70
2018-10-06T11:02:26.521Z,7.27
2018-10-06T11:04:56.543Z,7.77
2018-10-06T11:07:27.598Z,7.43
2018-10-06T11:09:57.113Z,7.03
2018-10-06T11:15:12.475Z,7.33
2018-10-06T11:17:48.426Z,7.60
2018-10-06T11:20:22.898Z,7.80
2018-10-06T11:22:53.215Z,7.40
2018-10-06T11:25:22.567Z,7.10
2018-10-06T11:27:56.940Z,7.30
2018-10-06T11:30:30.988Z,8.30
2018-10-06T11:33:05.803Z,7.23
2018-10-06T11:35:42.079Z,6.93
2018-10-06T11:38:11.396Z,7.20
2018-10-06T11:40:40.879Z,6.80
2018-10-06T11:43:11.540Z,6.80
2018-10-06T11:45:40.718Z,6.30
2018-10-06T11:48:09.507Z,6.10
2018-10-06T11:50:38.192Z,5.83
2018-10-06T11:53:08.106Z,5.77
2018-10-06T11:55:37.347Z,5.33
2018-10-06T11:58:06.210Z,5.80
2018-10-06T12:00:37.588Z,5.57
2018-10-06T12:03:09.056Z,5.93
2018-10-06T12:05:38.126Z,5.57
2018-10-06T12:08:07.724Z,5.23
2018-10-06T12:10:36.554Z,4.80
2018-10-06T12:13:05.958Z,5.30
2018-10-06T12:15:40.372Z,5.03
2018-10-06T12:18:09.601Z,5.80
2018-10-06T12:20:39.925Z,5.27
2018-10-06T12:23:13.368Z,5.13
2018-10-06T12:25:47.336Z,5.00
2018-10-06T12:28:15.897Z,4.93
2018-10-06T12:30:45.227Z,5.20
2018-10-06T12:33:18.372Z,4.63
2018-10-06T12:35:48.162Z,4.50
2018-10-06T12:38:22.475Z,4.60
2018-10-06T12:40:54.061Z,4.80
2018-10-06T12:43:23.038Z,4.13
2018-10-06T12:45:52.466Z,4.30
2018-10-06T12:48:21.961Z,4.33
2018-10-06T12:50:51.210Z,4.17
2018-10-06T12:53:21.481Z,4.33
2018-10-06T12:55:50.128Z,5.37
2018-10-06T12:58:19.368Z,4.97
2018-10-06T13:00:49.587Z,4.77
2018-10-06T13:03:18.609Z,4.70
2018-10-06T13:05:47.969Z,4.90
2018-10-06T13:08:17.572Z,4.53
2018-10-06T13:10:47.786Z,4.17
2018-10-06T13:13:17.876Z,4.20
2018-10-06T13:15:49.634Z,3.90
2018-10-06T13:18:21.447Z,4.10
2018-10-06T13:20:57.166Z,4.43
2018-10-06T13:23:26.543Z,5.23
2018-10-06T13:25:55.761Z,4.70
2018-10-06T13:28:25.515Z,4.87
2018-10-06T13:30:54.980Z,4.70
2018-10-06T13:33:24.749Z,5.20
2018-10-06T13:35:54.889Z,4.57
2018-10-06T13:38:24.707Z,4.67
2018-10-06T13:40:55.065Z,4.60
2018-10-06T13:43:23.985Z,5.10
2018-10-06T13:45:53.121Z,5.10
2018-10-06T13:48:23.621Z,5.10
2018-10-06T13:50:53.396Z,4.83
2018-10-06T13:53:28.365Z,4.70
2018-10-06T13:56:07.797Z,4.50
2018-10-06T13:58:46.325Z,4.40
2018-10-06T14:01:17.149Z,5.10
2018-10-06T14:03:46.063Z,4.37
2018-10-06T14:06:16.736Z,4.67
2018-10-06T14:08:45.367Z,4.50
2018-10-06T14:11:13.941Z,4.80
2018-10-06T14:13:46.910Z,5.13
2018-10-06T14:16:16.647Z,4.43
2018-10-06T14:18:45.294Z,4.53
2018-10-06T14:21:22.046Z,5.30
2018-10-06T14:23:50.759Z,5.13
2018-10-06T14:26:22.713Z,5.10
2018-10-06T14:28:53.422Z,4.97
2018-10-06T14:31:23.616Z,5.50
2018-10-06T14:33:53.111Z,4.67
2018-10-06T14:36:21.848Z,4.93
2018-10-06T14:38:53.821Z,4.87
2018-10-06T14:41:23.086Z,4.70
2018-10-06T14:43:54.043Z,5.00
2018-10-06T14:46:23.373Z,5.13
2018-10-06T14:48:52.252Z,5.20
2018-10-06T14:51:21.834Z,5.77
2018-10-06T14:53:54.370Z,5.73
2018-10-06T14:56:27.352Z,5.90
2018-10-06T14:58:55.898Z,6.20
2018-10-06T15:01:24.599Z,5.83
2018-10-06T15:04:00.067Z,5.67
2018-10-06T15:06:28.730Z,6.07
2018-10-06T15:08:59.335Z,6.57
2018-10-06T15:11:29.237Z,9.37
2018-10-06T15:14:00.148Z,7.13
2018-10-06T15:16:31.152Z,8.00
2018-10-06T15:19:01.142Z,6.97
2018-10-06T15:21:30.440Z,7.13
2018-10-06T15:23:59.442Z,9.10
2018-10-06T15:26:34.167Z,8.03
2018-10-06T15:29:13.610Z,7.97
2018-10-06T15:31:44.226Z,8.37
2018-10-06T15:34:21.070Z,7.83
2018-10-06T15:36:51.893Z,8.73
2018-10-06T15:39:25.763Z,8.33
2018-10-06T15:41:57.618Z,7.87
2018-10-06T15:44:27.946Z,8.10
2018-10-06T15:46:57.029Z,7.60
2018-10-06T15:49:35.258Z,8.77
2018-10-06T15:52:04.087Z,13.47
2018-10-06T15:54:34.267Z,10.47
2018-10-06T15:57:03.898Z,15.50
2018-10-06T15:59:33.595Z,8.50
2018-10-06T16:02:02.169Z,8.70
2018-10-06T16:04:32.256Z,8.23
2018-10-06T16:07:01.340Z,8.83
2018-10-06T16:09:35.200Z,9.97
2018-10-06T16:12:13.239Z,10.03
2018-10-06T16:14:43.171Z,10.67
2018-10-06T16:17:13.887Z,10.70
2018-10-06T16:19:45.692Z,11.00
2018-10-06T16:25:00.978Z,10.93
2018-10-06T16:27:32.210Z,11.90
2018-10-06T16:30:09.083Z,12.83
2018-10-06T16:32:42.428Z,12.37
2018-10-06T16:35:11.306Z,16.00
2018-10-06T16:37:48.027Z,18.80
2018-10-06T16:40:18.912Z,14.63
2018-10-06T16:42:55.705Z,14.83
2018-10-06T16:45:25.008Z,14.90
2018-10-06T16:47:58.031Z,14.10
2018-10-06T16:50:27.851Z,15.53
2018-10-06T16:52:57.534Z,14.93
2018-10-06T16:55:26.113Z,14.47
2018-10-06T16:57:54.745Z,13.73
2018-10-06T17:00:23.544Z,12.73
2018-10-06T17:02:52.384Z,12.90
2018-10-06T17:05:21.174Z,13.93
2018-10-06T17:07:50.084Z,13.73
2018-10-06T17:10:20.012Z,14.67
2018-10-06T17:12:49.867Z,33.43
2018-10-06T17:15:20.653Z,15.93
2018-10-06T17:17:49.346Z,14.77
2018-10-06T17:20:18.142Z,14.30
2018-10-06T17:22:47.277Z,14.90
2018-10-06T17:25:16.340Z,15.10
2018-10-06T17:27:44.875Z,14.07
2018-10-06T17:30:14.752Z,16.40
2018-10-06T17:32:44.474Z,18.10
2018-10-06T17:35:13.516Z,16.87
2018-10-06T17:37:44.035Z,16.90
2018-10-06T17:40:19.971Z,17.73
2018-10-06T17:42:50.357Z,16.20
2018-10-06T17:45:20.052Z,29.23
2018-10-06T17:47:49.959Z,16.20
2018-10-06T17:50:19.005Z,15.97
2018-10-06T17:52:49.122Z,15.80
2018-10-06T17:55:19.795Z,15.13
2018-10-06T17:57:49.628Z,15.37
2018-10-06T18:00:24.999Z,16.13
2018-10-06T18:02:55.883Z,17.00
2018-10-06T18:05:30.457Z,16.33
2018-10-06T18:10:26.907Z,17.27
2018-10-06T18:12:59.249Z,16.83
2018-10-06T18:15:28.375Z,16.90
2018-10-06T18:17:59.065Z,18.00
2018-10-06T18:20:28.593Z,19.73
2018-10-06T18:23:00.750Z,17.77
2018-10-06T18:25:30.635Z,19.73
2018-10-06T18:28:00.677Z,19.93
2018-10-06T18:30:31.219Z,21.30
2018-10-06T18:33:01.136Z,21.33
2018-10-06T18:35:32.653Z,20.20
2018-10-06T18:38:03.201Z,20.30
2018-10-06T18:40:32.613Z,20.77
2018-10-06T18:43:03.768Z,23.00
2018-10-06T18:45:33.080Z,22.33
2018-10-06T18:48:03.062Z,21.43
2018-10-06T18:50:32.036Z,22.03
2018-10-06T18:53:01.710Z,21.70
2018-10-06T18:55:31.403Z,21.47
2018-10-06T18:58:01.357Z,21.67
2018-10-06T19:00:36.638Z,22.73
2018-10-06T19:03:06.478Z,21.13
2018-10-06T19:05:36.195Z,20.70
2018-10-06T19:08:06.246Z,19.77
2018-10-06T19:10:36.238Z,20.03
2018-10-06T19:13:06.413Z,20.70
2018-10-06T19:15:35.085Z,20.57
2018-10-06T19:18:05.220Z,20.50
2018-10-06T19:20:38.212Z,20.43
2018-10-06T19:23:13.826Z,20.10
2018-10-06T19:25:51.049Z,20.70
2018-10-06T19:28:23.397Z,20.27
2018-10-06T19:30:53.142Z,20.50
2018-10-06T19:33:22.847Z,20.00
2018-10-06T19:35:52.538Z,20.67
2018-10-06T19:38:21.740Z,22.10
2018-10-06T19:40:56.212Z,20.47
2018-10-06T19:43:31.024Z,20.50
2018-10-06T19:46:00.178Z,20.53
2018-10-06T19:48:36.926Z,21.03
2018-10-06T19:51:14.780Z,22.57
2018-10-06T19:53:44.170Z,21.47
2018-10-06T19:56:14.329Z,23.03
2018-10-06T19:58:43.634Z,22.70
2018-10-06T20:01:14.870Z,21.90
2018-10-06T20:03:43.935Z,23.10
2018-10-06T20:06:12.966Z,23.17
2018-10-06T20:08:42.080Z,23.67
2018-10-06T20:11:11.374Z,22.87
2018-10-06T20:13:47.404Z,24.33
2018-10-06T20:16:18.184Z,24.37
2018-10-06T20:18:47.257Z,24.03
2018-10-06T20:21:16.438Z,24.73
2018-10-06T20:23:45.486Z,25.73
2018-10-06T20:26:14.750Z,26.43
2018-10-06T20:28:43.888Z,26.23
2018-10-06T20:31:18.315Z,25.97
2018-10-06T20:33:47.288Z,28.00
2018-10-06T20:36:18.043Z,26.73
2018-10-06T20:38:47.494Z,27.90
2018-10-06T20:41:18.627Z,28.13
2018-10-06T20:43:49.269Z,27.37
2018-10-06T20:46:20.423Z,29.07
2018-10-06T20:48:49.539Z,29.43
2018-10-06T20:51:19.691Z,28.73
2018-10-06T20:53:50.032Z,29.17
2018-10-06T20:56:19.329Z,30.23
2018-10-06T20:58:48.355Z,31.90
2018-10-06T21:01:21.141Z,31.13
2018-10-06T21:03:50.453Z,32.63
2018-10-06T21:06:19.088Z,32.97
2018-10-06T21:08:47.779Z,32.80
2018-10-06T21:11:22.033Z,35.33
2018-10-06T21:13:52.569Z,33.10
2018-10-06T21:16:23.069Z,35.70
2018-10-06T21:18:52.686Z,35.67
2018-10-06T21:21:21.350Z,36.17
2018-10-06T21:23:51.937Z,36.13
2018-10-06T21:26:20.611Z,36.43
2018-10-06T21:28:53.103Z,35.07
2018-10-06T21:31:27.547Z,35.63
2018-10-06T21:33:58.157Z,36.63
2018-10-06T21:36:26.752Z,36.87
2018-10-06T21:38:55.630Z,36.17
2018-10-06T21:41:26.358Z,37.93
2018-10-06T21:43:54.987Z,37.37
2018-10-06T21:46:23.607Z,39.17
2018-10-06T21:48:54.139Z,39.30
2018-10-06T21:51:28.373Z,38.63
2018-10-06T21:54:08.991Z,37.67
2018-10-06T21:56:37.674Z,38.40
2018-10-06T21:59:08.205Z,39.07
2018-10-06T22:01:37.833Z,37.93
2018-10-06T22:04:07.467Z,39.53
2018-10-06T22:06:39.843Z,38.90
2018-10-06T22:09:15.955Z,40.60
2018-10-06T22:11:49.212Z,40.53
2018-10-06T22:14:17.869Z,41.30
2018-10-06T22:16:46.503Z,43.70
2018-10-06T22:19:19.570Z,44.50
2018-10-06T22:21:48.188Z,43.43
2018-10-06T22:24:16.696Z,44.20
2018-10-06T22:26:46.287Z,43.33
2018-10-06T22:29:15.012Z,43.37
2018-10-06T22:31:44.029Z,43.83
2018-10-06T22:34:13.207Z,43.13
2018-10-06T22:36:42.289Z,40.63
2018-10-06T22:39:11.423Z,39.77
2018-10-06T22:41:41.769Z,38.70
2018-10-06T22:44:11.697Z,37.33
2018-10-06T22:46:43.311Z,36.47
2018-10-06T22:49:16.979Z,36.50
2018-10-06T22:51:51.470Z,36.80
2018-10-06T22:54:21.488Z,36.57
2018-10-06T22:56:51.530Z,36.17
2018-10-06T22:59:20.650Z,34.57
2018-10-06T23:01:55.896Z,32.97
2018-10-06T23:04:25.816Z,33.33
2018-10-06T23:06:55.823Z,34.60
2018-10-06T23:09:24.871Z,31.97
2018-10-06T23:11:54.503Z,31.53
2018-10-06T23:14:23.320Z,32.00
2018-10-06T23:16:51.918Z,30.00
2018-10-06T23:19:20.593Z,29.87
2018-10-06T23:21:50.562Z,27.40
2018-10-06T23:24:19.618Z,27.10
2018-10-06T23:26:54.685Z,24.33
2018-10-06T23:29:33.469Z,25.33
2018-10-06T23:32:04.070Z,24.70
2018-10-06T23:34:33.600Z,21.77
2018-10-06T23:37:03.298Z,20.77
2018-10-06T23:39:31.882Z,20.00
2018-10-06T23:42:01.804Z,19.47
2018-10-06T23:44:36.334Z,18.63
2018-10-06T23:47:11.636Z,16.97
2018-10-06T23:49:40.210Z,15.77
2018-10-06T23:52:08.866Z,14.97
2018-10-06T23:54:38.447Z,14.37
2018-10-06T23:57:08.205Z,14.43
2018-10-06T23:59:39.912Z,14.27
